Time;durP1;ratioP1;P1;durP2;ratioP2;P2;SDS_P1;SDS_P2;PMS_P1;PMS_P2;Temp;Humidity;BMP_temperature;BMP_pressure;BME280_temperature;BME280_humidity;BME280_pressure;Samples;Min_cycle;Max_cycle;Signal;HPM_P1;HPM_P2
2023/05/27 00:04:09;;;;;;;4.05;2.17;;;22.80;77.30;;;;;;11017544;32;20045;-71
2023/05/27 00:10:11;;;;;;;3.17;1.95;;;22.60;77.60;;;;;;11017231;32;20053;-72
2023/05/27 00:16:13;;;;;;;8.60;3.60;;;22.60;78.00;;;;;;11017158;32;20041;-72
2023/05/27 00:22:15;;;;;;;4.07;2.17;;;22.60;77.40;;;;;;11017030;32;20038;-72
2023/05/27 00:28:31;;;;;;;4.60;1.73;;;22.40;77.80;;;;;;10893920;32;20028;-71
2023/05/27 00:34:34;;;;;;;4.57;2.25;;;22.80;78.00;;;;;;10860471;32;20330;-72
2023/05/27 00:40:48;;;;;;;2.50;1.70;;;23.00;77.60;;;;;;10860557;32;20046;-72
2023/05/27 00:47:15;;;;;;;3.15;1.52;;;23.20;77.50;;;;;;10911530;32;20024;-71
2023/05/27 00:53:19;;;;;;;3.03;1.80;;;22.90;77.50;;;;;;10860183;32;20046;-71
2023/05/27 00:59:28;;;;;;;2.70;1.48;;;22.90;77.80;;;;;;10860033;32;20024;-72
2023/05/27 01:05:30;;;;;;;2.90;1.75;;;23.10;77.80;;;;;;10864393;32;20012;-72
2023/05/27 01:11:59;;;;;;;4.32;1.48;;;23.20;77.80;;;;;;10866131;32;20050;-72
2023/05/27 01:18:03;;;;;;;1.87;1.42;;;23.30;78.00;;;;;;10865892;32;20325;-72
2023/05/27 01:24:07;;;;;;;3.30;1.55;;;23.10;78.40;;;;;;10873438;32;20030;-71
2023/05/27 01:30:09;;;;;;;3.37;1.37;;;23.10;79.20;;;;;;11022257;32;20033;-71
2023/05/27 01:36:17;;;;;;;1.52;1.20;;;23.00;79.10;;;;;;11022144;32;20018;-71
2023/05/27 01:42:20;;;;;;;;;;;23.20;78.70;;;;;;11022285;32;20037;-71
2023/05/27 01:48:22;;;;;;;2.78;1.85;;;23.30;78.40;;;;;;11018896;32;19922;-71
2023/05/27 01:54:24;;;;;;;2.80;1.75;;;23.20;78.50;;;;;;11021419;32;20422;-71
2023/05/27 02:00:26;;;;;;;1.90;1.35;;;23.00;78.90;;;;;;11021242;32;20025;-71
2023/05/27 02:06:30;;;;;;;2.92;2.00;;;23.10;78.90;;;;;;11020109;32;20036;-70
2023/05/27 02:12:32;;;;;;;2.67;1.77;;;23.20;78.90;;;;;;11019539;32;20010;-70
2023/05/27 02:18:35;;;;;;;4.82;2.67;;;23.10;78.70;;;;;;11020549;32;20033;-70
2023/05/27 02:24:37;;;;;;;2.55;1.65;;;23.10;78.70;;;;;;11016633;32;20022;-70
2023/05/27 02:30:39;;;;;;;3.15;1.98;;;23.20;78.60;;;;;;11020169;32;20026;-70
2023/05/27 02:36:41;;;;;;;5.55;2.25;;;23.20;78.80;;;;;;11019022;32;20014;-70
2023/05/27 02:42:43;;;;;;;3.80;2.30;;;23.20;78.90;;;;;;11019625;32;20015;-70
2023/05/27 02:48:47;;;;;;;6.35;2.30;;;23.00;78.90;;;;;;11018625;32;20022;-70
2023/05/27 02:54:49;;;;;;;5.10;2.08;;;22.90;79.00;;;;;;11019226;32;20022;-71
2023/05/27 03:00:51;;;;;;;3.05;1.40;;;22.70;78.80;;;;;;11019250;32;20018;-70
2023/05/27 03:06:54;;;;;;;6.53;1.85;;;22.60;79.00;;;;;;11017668;32;20056;-70
2023/05/27 03:13:20;;;;;;;2.15;1.40;;;22.50;79.10;;;;;;11017788;32;20049;-70
2023/05/27 03:19:23;;;;;;;2.95;1.73;;;22.50;79.00;;;;;;11018529;32;20382;-70
2023/05/27 03:25:24;;;;;;;3.42;1.70;;;22.40;79.10;;;;;;10971833;32;20050;-70
2023/05/27 03:31:27;;;;;;;5.65;1.62;;;22.30;79.00;;;;;;10862121;32;20325;-70
2023/05/27 03:37:30;;;;;;;5.90;1.92;;;22.30;79.10;;;;;;10861982;32;20024;-70
2023/05/27 03:43:32;;;;;;;3.42;2.10;;;22.30;79.20;;;;;;10861764;32;20016;-71
2023/05/27 03:49:34;;;;;;;3.05;1.85;;;22.50;79.10;;;;;;10912794;32;20062;-70
2023/05/27 03:55:37;;;;;;;6.80;1.60;;;22.40;78.90;;;;;;10861459;32;20360;-71
2023/05/27 04:01:39;;;;;;;1.92;1.50;;;22.50;79.00;;;;;;10861336;32;20050;-71
2023/05/27 04:07:41;;;;;;;4.57;2.30;;;22.50;78.90;;;;;;10861267;32;20024;-71
2023/05/27 04:13:44;;;;;;;4.40;1.42;;;22.60;78.70;;;;;;10861040;32;20023;-71
2023/05/27 04:19:48;;;;;;;2.17;1.37;;;22.50;78.60;;;;;;10860928;32;20028;-71
2023/05/27 04:25:52;;;;;;;2.62;1.50;;;22.50;78.70;;;;;;10860827;32;20042;-71
2023/05/27 04:31:56;;;;;;;3.67;1.62;;;22.60;78.90;;;;;;10860620;32;20401;-71
2023/05/27 04:38:00;;;;;;;4.45;1.65;;;22.60;78.80;;;;;;10863379;32;20003;-71
2023/05/27 04:44:03;;;;;;;3.25;2.00;;;22.70;78.80;;;;;;10867085;32;20344;-71
2023/05/27 04:50:13;;;;;;;5.87;2.17;;;22.80;78.70;;;;;;10866923;32;20075;-71
2023/05/27 04:56:17;;;;;;;3.58;1.62;;;22.70;78.90;;;;;;10866623;32;20380;-71
2023/05/27 05:02:22;;;;;;;2.83;1.20;;;22.60;78.90;;;;;;10866407;32;20019;-71
2023/05/27 05:08:36;;;;;;;2.85;1.40;;;22.50;79.10;;;;;;10866240;32;20043;-71
2023/05/27 05:14:38;;;;;;;2.03;1.62;;;22.60;79.20;;;;;;10866046;32;20042;-71
2023/05/27 05:20:41;;;;;;;3.67;2.30;;;22.80;79.40;;;;;;10865857;32;20023;-71
2023/05/27 05:26:44;;;;;;;3.72;2.15;;;23.00;79.50;;;;;;10913389;32;20050;-70
2023/05/27 05:32:46;;;;;;;5.00;2.20;;;23.30;79.40;;;;;;10985226;32;20045;-70
2023/05/27 05:38:49;;;;;;;4.12;2.33;;;23.30;79.20;;;;;;11018051;32;20340;-70
2023/05/27 05:44:52;;;;;;;4.57;2.28;;;23.30;79.20;;;;;;11021913;32;20442;-70
2023/05/27 05:50:54;;;;;;;4.03;2.37;;;23.30;79.10;;;;;;11021068;32;20026;-71
2023/05/27 05:56:57;;;;;;;4.62;2.85;;;23.20;79.40;;;;;;11021421;32;20014;-71
2023/05/27 06:03:00;;;;;;;4.43;2.58;;;23.00;79.60;;;;;;11021262;32;20325;-71
2023/05/27 06:09:05;;;;;;;3.53;2.25;;;23.20;79.50;;;;;;11007744;32;20091;-71
2023/05/27 06:15:08;;;;;;;3.50;1.92;;;23.30;79.30;;;;;;11020782;32;20026;-72
2023/05/27 06:21:12;;;;;;;5.00;2.53;;;23.50;79.00;;;;;;11020585;32;20018;-73
2023/05/27 06:27:19;;;;;;;5.33;2.67;;;23.70;78.50;;;;;;11020276;32;20412;-74
2023/05/27 06:33:21;;;;;;;6.30;2.25;;;23.80;78.30;;;;;;11020049;32;20053;-74
2023/05/27 06:39:23;;;;;;;4.57;2.97;;;24.00;78.30;;;;;;11019910;32;20027;-74
2023/05/27 06:45:26;;;;;;;4.70;2.42;;;24.10;78.10;;;;;;10988790;32;20395;-74
2023/05/27 06:51:29;;;;;;;4.30;2.40;;;24.20;77.80;;;;;;11019424;32;20026;-74
2023/05/27 06:57:31;;;;;;;4.05;2.10;;;24.20;77.90;;;;;;11019260;32;20049;-75
2023/05/27 07:03:34;;;;;;;3.97;2.35;;;24.30;78.10;;;;;;11019009;32;20026;-74
2023/05/27 07:09:37;;;;;;;2.47;1.70;;;24.30;77.90;;;;;;11019018;32;20438;-75
2023/05/27 07:15:40;;;;;;;3.47;2.22;;;24.40;77.60;;;;;;11018778;32;20030;-75
2023/05/27 07:21:42;;;;;;;4.30;2.53;;;24.40;77.40;;;;;;11018564;32;20023;-75
2023/05/27 07:27:45;;;;;;;5.15;2.95;;;24.40;77.70;;;;;;10313819;32;17078673;-75
2023/05/27 07:33:48;;;;;;;5.18;2.83;;;24.40;77.80;;;;;;10747888;33;20054;-74
2023/05/27 07:39:51;;;;;;;4.60;2.95;;;24.60;78.10;;;;;;10748330;33;20098;-73
2023/05/27 07:45:53;;;;;;;7.47;4.87;;;24.80;78.20;;;;;;10748659;33;20358;-74
2023/05/27 07:51:55;;;;;;;7.00;4.10;;;24.70;77.80;;;;;;10749678;33;20056;-73
2023/05/27 07:57:57;;;;;;;6.28;4.55;;;24.60;77.10;;;;;;10751449;33;20444;-75
2023/05/27 08:04:01;;;;;;;9.32;4.93;;;24.70;76.20;;;;;;10750642;32;20063;-75
2023/05/27 08:10:04;;;;;;;6.53;3.87;;;24.70;75.80;;;;;;10751106;33;20041;-76
2023/05/27 08:16:09;;;;;;;5.37;3.60;;;24.70;74.70;;;;;;10755496;33;20378;-74
2023/05/27 08:22:11;;;;;;;7.18;3.55;;;24.80;74.90;;;;;;10807798;32;20032;-76
2023/05/27 08:28:14;;;;;;;5.45;3.87;;;24.90;74.80;;;;;;10781702;32;20028;-75
2023/05/27 08:34:18;;;;;;;7.53;3.67;;;25.00;74.60;;;;;;10780732;32;20341;-76
2023/05/27 08:40:20;;;;;;;5.45;3.65;;;25.00;73.70;;;;;;10780995;33;20055;-77
2023/05/27 08:46:23;;;;;;;7.87;4.07;;;25.20;73.60;;;;;;10764191;33;20025;-78
2023/05/27 08:52:28;;;;;;;9.65;5.25;;;25.30;74.70;;;;;;10773045;33;20058;-74
2023/05/27 08:58:30;;;;;;;21.92;7.43;;;25.40;74.80;;;;;;10784400;33;20044;-74
2023/05/27 09:04:33;;;;;;;10.85;4.47;;;25.40;73.50;;;;;;10820189;32;20049;-77
2023/05/27 09:10:39;;;;;;;12.98;5.00;;;25.60;73.30;;;;;;10984810;32;20010;-75
2023/05/27 09:16:45;;;;;;;10.10;5.65;;;25.60;73.20;;;;;;10963193;32;20060;-76
2023/05/27 09:22:55;;;;;;;5.57;3.85;;;25.70;72.60;;;;;;10765760;32;20651;-76
2023/05/27 09:29:02;;;;;;;5.43;3.55;;;25.80;71.60;;;;;;10775070;32;20052;-78
2023/05/27 09:35:07;;;;;;;6.12;3.90;;;25.80;70.50;;;;;;10842501;32;20016;-77
2023/05/27 09:41:09;;;;;;;5.80;4.00;;;25.90;70.30;;;;;;10780691;33;20063;-77
2023/05/27 09:47:11;;;;;;;5.95;4.03;;;26.00;70.10;;;;;;10769992;33;20054;-77
2023/05/27 09:53:18;;;;;;;7.53;4.53;;;26.10;69.60;;;;;;10791403;33;20051;-78
2023/05/27 09:59:22;;;;;;;6.12;3.45;;;26.30;69.30;;;;;;10790906;32;20440;-78
2023/05/27 10:05:27;;;;;;;5.10;3.30;;;26.30;69.30;;;;;;10790993;33;20062;-78
2023/05/27 10:11:37;;;;;;;5.53;3.50;;;26.30;67.80;;;;;;10790659;33;20029;-78
2023/05/27 10:17:55;;;;;;;5.75;3.97;;;26.40;67.30;;;;;;10790713;33;20066;-76
2023/05/27 10:23:58;;;;;;;8.65;4.00;;;26.60;66.50;;;;;;10790482;33;20106;-78
2023/05/27 10:30:00;;;;;;;9.38;5.00;;;26.60;65.70;;;;;;10790509;33;20051;-77
2023/05/27 10:36:12;;;;;;;6.00;3.80;;;26.80;65.20;;;;;;10789742;33;20027;-77
2023/05/27 10:42:42;;;;;;;6.25;4.37;;;26.90;64.20;;;;;;10789780;33;20020;-77
2023/05/27 10:48:45;;;;;;;4.97;3.08;;;27.10;63.50;;;;;;10789984;33;20016;-77
2023/05/27 10:54:51;;;;;;;7.07;4.45;;;27.30;63.40;;;;;;10789505;33;20361;-78
2023/05/27 11:01:07;;;;;;;8.00;4.57;;;27.50;62.00;;;;;;10789535;32;20016;-75
2023/05/27 11:07:09;;;;;;;6.57;4.50;;;27.70;63.00;;;;;;10786252;33;20012;-77
2023/05/27 11:13:11;;;;;;;6.57;3.67;;;27.80;63.20;;;;;;10788867;33;20338;-77
2023/05/27 11:19:13;;;;;;;13.88;4.97;;;28.00;62.10;;;;;;10787415;33;20435;-78
2023/05/27 11:25:15;;;;;;;6.43;4.22;;;28.00;59.90;;;;;;10775603;33;20016;-77
2023/05/27 11:31:21;;;;;;;6.40;3.95;;;28.20;59.20;;;;;;10771685;33;20067;-77
2023/05/27 11:37:57;;;;;;;7.43;4.80;;;28.30;59.00;;;;;;10864273;32;20097;-76
2023/05/27 11:44:00;;;;;;;11.00;4.22;;;28.50;58.10;;;;;;10836083;32;20347;-78
2023/05/27 11:50:03;;;;;;;9.32;4.03;;;28.60;58.10;;;;;;10639722;33;20048;-78
2023/05/27 11:56:05;;;;;;;5.28;3.20;;;28.80;57.80;;;;;;10811131;33;20036;-77
2023/05/27 12:02:07;;;;;;;9.48;5.25;;;28.80;57.40;;;;;;10822316;33;20024;-76
2023/05/27 12:08:09;;;;;;;5.37;3.72;;;28.90;57.00;;;;;;10826141;33;20028;-78
2023/05/27 12:14:12;;;;;;;7.53;4.32;;;28.80;57.00;;;;;;10772978;32;20062;-77
2023/05/27 12:20:14;;;;;;;5.95;3.70;;;28.80;57.20;;;;;;10750788;33;20025;-78
2023/05/27 12:26:17;;;;;;;7.32;4.15;;;28.80;57.30;;;;;;10749872;32;20057;-78
2023/05/27 12:32:19;;;;;;;6.97;5.45;;;28.90;56.30;;;;;;10736755;33;20414;-78
2023/05/27 12:38:22;;;;;;;5.93;3.90;;;29.00;56.30;;;;;;10750405;33;20020;-77
2023/05/27 12:44:25;;;;;;;5.40;3.67;;;29.00;56.90;;;;;;10734672;33;20037;-76
2023/05/27 12:50:27;;;;;;;4.95;3.10;;;28.90;57.90;;;;;;10736726;33;20080;-76
2023/05/27 12:56:29;;;;;;;5.93;3.30;;;28.70;56.60;;;;;;10736561;33;20036;-76
2023/05/27 13:02:31;;;;;;;6.53;4.37;;;28.50;56.30;;;;;;10756190;33;20017;-77
2023/05/27 13:08:39;;;;;;;8.48;4.93;;;28.60;55.60;;;;;;10753545;33;20024;-76
2023/05/27 13:15:32;;;;;;;8.02;5.35;;;28.80;55.60;;;;;;10605267;33;20053;-77
2023/05/27 13:21:35;;;;;;;7.03;4.05;;;28.80;55.20;;;;;;10608090;33;20336;-76
2023/05/27 13:27:38;;;;;;;6.82;4.40;;;28.70;55.20;;;;;;10605154;33;20022;-76
2023/05/27 13:33:43;;;;;;;6.60;4.40;;;28.60;57.00;;;;;;10607229;33;20027;-77
2023/05/27 13:39:45;;;;;;;6.57;3.85;;;28.60;56.00;;;;;;10607516;33;20392;-77
2023/05/27 13:45:47;;;;;;;6.95;3.83;;;28.60;55.90;;;;;;10626971;33;20051;-77
2023/05/27 13:51:50;;;;;;;8.75;4.32;;;28.70;55.50;;;;;;10715138;33;20037;-78
2023/05/27 13:57:52;;;;;;;10.25;4.95;;;28.80;55.20;;;;;;10729452;33;20062;-75
2023/05/27 14:03:54;;;;;;;8.90;5.87;;;28.80;55.30;;;;;;10716176;33;20440;-76
2023/05/27 14:09:56;;;;;;;10.98;6.00;;;28.90;54.60;;;;;;10717180;32;20068;-77
2023/05/27 14:15:58;;;;;;;7.57;4.55;;;28.90;55.00;;;;;;10717762;33;20308;-77
2023/05/27 14:22:00;;;;;;;7.18;4.57;;;28.90;55.20;;;;;;10717683;33;20025;-78
2023/05/27 14:28:05;;;;;;;7.65;3.97;;;29.10;54.80;;;;;;10717671;33;20051;-78
2023/05/27 14:34:08;;;;;;;7.10;4.30;;;29.00;54.70;;;;;;10715949;33;20055;-77
2023/05/27 14:40:10;;;;;;;6.47;3.55;;;28.90;54.90;;;;;;10727988;33;20421;-78
2023/05/27 14:46:12;;;;;;;6.90;5.00;;;28.70;55.10;;;;;;10716908;33;20043;-78
2023/05/27 14:52:14;;;;;;;7.20;4.53;;;28.60;56.40;;;;;;10715403;33;20040;-77
2023/05/27 14:58:17;;;;;;;6.15;4.03;;;28.40;57.70;;;;;;10716769;33;20086;-78
2023/05/27 15:04:19;;;;;;;7.32;3.65;;;28.50;57.00;;;;;;10716558;33;20354;-78
2023/05/27 15:10:21;;;;;;;6.85;4.20;;;28.50;56.90;;;;;;10716294;33;20056;-78
2023/05/27 15:16:23;;;;;;;6.12;4.30;;;28.40;56.90;;;;;;10715838;33;20025;-78
2023/05/27 15:22:25;;;;;;;5.72;3.67;;;28.40;57.00;;;;;;10714922;33;20020;-78
2023/05/27 15:28:27;;;;;;;7.55;4.32;;;28.40;57.00;;;;;;10770565;27;20102;-78
2023/05/27 15:34:29;;;;;;;5.47;3.22;;;28.50;57.10;;;;;;10784505;33;20046;-78
2023/05/27 15:40:33;;;;;;;6.22;3.70;;;28.60;56.70;;;;;;10838473;32;20032;-78
2023/05/27 15:46:35;;;;;;;12.45;3.72;;;28.70;56.30;;;;;;10788118;32;20016;-78
2023/05/27 15:52:37;;;;;;;9.73;3.47;;;28.90;56.30;;;;;;10787359;33;20074;-78
2023/05/27 15:58:40;;;;;;;5.90;4.30;;;28.90;55.90;;;;;;10775303;32;20029;-78
2023/05/27 16:04:42;;;;;;;5.35;3.37;;;28.90;56.40;;;;;;10787660;33;20016;-78
2023/05/27 16:10:52;;;;;;;5.28;3.80;;;29.00;56.30;;;;;;10787666;33;20009;-76
2023/05/27 16:16:54;;;;;;;6.07;3.40;;;29.10;56.50;;;;;;10775237;32;20055;-78
2023/05/27 16:22:56;;;;;;;6.87;4.30;;;29.10;58.00;;;;;;10773791;33;20043;-72
2023/05/27 16:28:59;;;;;;;5.60;3.17;;;29.10;57.50;;;;;;10787057;32;20020;-72
2023/05/27 16:35:01;;;;;;;5.28;3.30;;;29.20;57.00;;;;;;10790610;33;20342;-72
2023/05/27 16:41:04;;;;;;;9.85;3.55;;;29.20;56.60;;;;;;10791922;33;20051;-72
2023/05/27 16:47:06;;;;;;;11.48;4.55;;;29.20;57.30;;;;;;10792215;33;20334;-72
2023/05/27 16:53:08;;;;;;;5.62;3.00;;;29.20;57.10;;;;;;10791535;33;20062;-71
2023/05/27 16:59:10;;;;;;;6.10;3.40;;;29.00;57.30;;;;;;10788805;33;20042;-72
2023/05/27 17:05:13;;;;;;;5.75;2.92;;;28.80;57.70;;;;;;10792595;33;20362;-72
2023/05/27 17:11:15;;;;;;;6.30;4.15;;;28.70;58.00;;;;;;10791403;33;20035;-72
2023/05/27 17:17:17;;;;;;;6.32;3.08;;;28.60;58.00;;;;;;10776624;33;20078;-72
2023/05/27 17:23:19;;;;;;;6.85;3.60;;;28.40;58.30;;;;;;10778906;33;20330;-72
2023/05/27 17:29:21;;;;;;;6.10;4.25;;;28.30;58.40;;;;;;10792042;33;20051;-72
2023/05/27 17:35:23;;;;;;;6.72;3.33;;;28.20;58.60;;;;;;10790353;33;20024;-72
2023/05/27 17:41:26;;;;;;;5.35;3.10;;;28.10;59.00;;;;;;10791698;33;20042;-72
2023/05/27 17:47:28;;;;;;;5.18;3.58;;;28.00;59.20;;;;;;10791170;33;20021;-72
2023/05/27 17:53:30;;;;;;;4.40;2.92;;;27.90;59.40;;;;;;10792409;33;20025;-72
2023/05/27 17:59:32;;;;;;;4.75;3.03;;;27.90;59.90;;;;;;10792309;33;20017;-72
2023/05/27 18:05:34;;;;;;;5.53;3.30;;;27.80;60.30;;;;;;10784536;32;20028;-72
2023/05/27 18:11:36;;;;;;;5.35;2.95;;;27.80;60.60;;;;;;10753486;33;20024;-72
2023/05/27 18:17:39;;;;;;;6.15;3.03;;;27.80;60.80;;;;;;10750243;33;20354;-72
2023/05/27 18:23:41;;;;;;;8.27;3.90;;;27.70;61.30;;;;;;10755004;33;20025;-73
2023/05/27 18:29:43;;;;;;;6.72;3.92;;;27.60;62.60;;;;;;10754375;33;20047;-72
2023/05/27 18:35:45;;;;;;;6.80;3.45;;;27.50;63.70;;;;;;10754706;33;20323;-72
2023/05/27 18:41:47;;;;;;;5.32;3.17;;;27.40;64.00;;;;;;10754589;33;20025;-72
2023/05/27 18:47:49;;;;;;;5.80;3.85;;;27.30;64.20;;;;;;10753501;33;20343;-73
2023/05/27 18:53:51;;;;;;;6.15;3.35;;;27.30;64.70;;;;;;10752814;33;20024;-72
2023/05/27 18:59:54;;;;;;;5.53;3.55;;;27.30;65.90;;;;;;10753026;33;20012;-72
2023/05/27 19:05:56;;;;;;;5.43;3.53;;;27.20;67.00;;;;;;10741545;33;20040;-73
2023/05/27 19:11:58;;;;;;;6.97;2.90;;;27.10;67.30;;;;;;10749572;33;20383;-72
2023/05/27 19:18:00;;;;;;;4.40;2.92;;;27.10;67.10;;;;;;10753013;33;20017;-72
2023/05/27 19:24:03;;;;;;;5.03;3.10;;;27.00;67.10;;;;;;10751801;33;20020;-73
2023/05/27 19:30:06;;;;;;;6.12;3.92;;;27.00;67.50;;;;;;10752698;33;20051;-73
2023/05/27 19:36:08;;;;;;;4.20;2.60;;;26.90;67.80;;;;;;10752971;33;20074;-72
2023/05/27 19:42:10;;;;;;;6.18;3.42;;;26.80;68.00;;;;;;10738561;33;20062;-73
2023/05/27 19:48:12;;;;;;;5.53;3.03;;;26.80;68.30;;;;;;10751257;33;20012;-73
2023/05/27 19:54:15;;;;;;;5.55;3.58;;;26.70;68.60;;;;;;10752496;32;20024;-73
2023/05/27 20:00:18;;;;;;;8.68;2.92;;;26.70;69.00;;;;;;10751570;33;20319;-72
2023/05/27 20:06:20;;;;;;;5.75;4.12;;;26.50;69.20;;;;;;10752394;33;20295;-73
2023/05/27 20:12:43;;;;;;;8.60;4.12;;;26.50;69.50;;;;;;10758472;33;20024;-73
2023/05/27 20:18:45;;;;;;;4.65;3.25;;;26.50;69.80;;;;;;10758023;33;20040;-73
2023/05/27 20:24:48;;;;;;;6.78;3.67;;;26.40;70.70;;;;;;10756418;33;20056;-72
2023/05/27 20:30:51;;;;;;;6.25;3.60;;;26.30;70.80;;;;;;10758238;33;20375;-72
2023/05/27 20:36:53;;;;;;;5.68;3.62;;;26.30;71.00;;;;;;10757579;33;20020;-72
2023/05/27 20:42:55;;;;;;;7.82;4.68;;;26.20;71.10;;;;;;10756817;33;20016;-72
2023/05/27 20:48:57;;;;;;;6.40;3.90;;;26.10;71.10;;;;;;10756801;33;20371;-72
2023/05/27 20:55:00;;;;;;;4.97;3.10;;;26.00;71.30;;;;;;10756335;33;20024;-73
2023/05/27 21:01:02;;;;;;;4.93;3.30;;;26.00;71.60;;;;;;10742841;33;20358;-73
2023/05/27 21:07:04;;;;;;;8.63;3.20;;;26.00;72.00;;;;;;10756429;33;20021;-72
2023/05/27 21:13:06;;;;;;;5.37;3.50;;;25.90;72.90;;;;;;10756156;33;20048;-72
2023/05/27 21:19:09;;;;;;;9.40;3.85;;;25.90;72.80;;;;;;10756595;33;20021;-72
2023/05/27 21:25:11;;;;;;;8.02;4.68;;;25.80;72.90;;;;;;10766145;33;20054;-72
2023/05/27 21:31:13;;;;;;;7.43;4.60;;;25.80;73.10;;;;;;10791657;33;20043;-72
2023/05/27 21:37:15;;;;;;;8.20;4.20;;;25.80;73.10;;;;;;10791570;33;20031;-72
2023/05/27 21:43:17;;;;;;;5.57;3.85;;;25.80;73.40;;;;;;10791332;33;20469;-72
2023/05/27 21:49:19;;;;;;;6.93;4.37;;;25.70;74.20;;;;;;10791831;33;20283;-72
2023/05/27 21:55:22;;;;;;;5.53;4.03;;;25.70;74.50;;;;;;10790637;33;20016;-73
2023/05/27 22:01:24;;;;;;;6.30;4.60;;;25.50;75.30;;;;;;10787066;33;20047;-72
2023/05/27 22:07:26;;;;;;;4.90;3.97;;;25.40;75.30;;;;;;10773730;33;20322;-72
2023/05/27 22:13:28;;;;;;;5.30;3.62;;;25.30;75.00;;;;;;10790447;33;20047;-72
2023/05/27 22:19:30;;;;;;;8.35;5.50;;;25.30;75.10;;;;;;10790674;33;20020;-72
2023/05/27 22:25:32;;;;;;;6.82;4.87;;;25.30;75.10;;;;;;10790354;33;20395;-72
2023/05/27 22:31:34;;;;;;;10.50;5.05;;;25.30;75.00;;;;;;10789731;33;20346;-72
2023/05/27 22:37:36;;;;;;;7.68;5.43;;;25.30;75.50;;;;;;10790003;33;20039;-72
2023/05/27 22:43:38;;;;;;;9.73;4.78;;;25.30;75.40;;;;;;10776735;33;20075;-72
2023/05/27 22:49:40;;;;;;;6.05;4.28;;;25.20;75.40;;;;;;10789567;33;20020;-73
2023/05/27 22:55:42;;;;;;;8.02;4.85;;;25.20;75.40;;;;;;10789370;33;20027;-72
2023/05/27 23:01:44;;;;;;;8.65;5.00;;;25.20;75.60;;;;;;10789016;33;20193;-72
2023/05/27 23:07:46;;;;;;;7.45;5.20;;;25.20;75.70;;;;;;10775636;33;20277;-72
2023/05/27 23:13:48;;;;;;;7.35;5.00;;;25.10;76.30;;;;;;10788861;33;20048;-73
2023/05/27 23:19:50;;;;;;;7.87;4.57;;;25.00;76.60;;;;;;10785204;33;20024;-73
2023/05/27 23:25:52;;;;;;;7.18;4.47;;;25.00;76.80;;;;;;10792602;27;20078;-72
2023/05/27 23:31:54;;;;;;;6.18;4.05;;;24.90;77.10;;;;;;10772523;32;20063;-71
2023/05/27 23:37:58;;;;;;;5.55;3.30;;;24.80;77.50;;;;;;10775360;33;20024;-74
2023/05/27 23:44:01;;;;;;;5.28;3.60;;;24.80;77.70;;;;;;10787380;33;20020;-74
2023/05/27 23:50:03;;;;;;;5.55;3.78;;;24.70;77.50;;;;;;10774158;33;20047;-73
2023/05/27 23:56:06;;;;;;;10.65;4.55;;;24.50;77.50;;;;;;10774832;33;20028;-73
